sensor_id;sensor_type;location;lat;lon;timestamp;temperature;humidity
75466;HTU21D;64049;46.290;44.240;2023-07-31T00:01:56;20.19;52.28
75466;HTU21D;64049;46.290;44.240;2023-07-31T00:04:22;20.14;52.27
75466;HTU21D;64049;46.290;44.240;2023-07-31T00:06:48;20.11;52.21
75466;HTU21D;64049;46.290;44.240;2023-07-31T00:09:14;20.09;52.07
75466;HTU21D;64049;46.290;44.240;2023-07-31T00:11:41;20.06;52.26
75466;HTU21D;64049;46.290;44.240;2023-07-31T00:14:06;20.06;52.18
75466;HTU21D;64049;46.290;44.240;2023-07-31T00:16:32;20.06;52.05
75466;HTU21D;64049;46.290;44.240;2023-07-31T00:18:58;20.00;52.07
75466;HTU21D;64049;46.290;44.240;2023-07-31T00:21:24;19.94;52.01
75466;HTU21D;64049;46.290;44.240;2023-07-31T00:23:50;19.96;52.11
75466;HTU21D;64049;46.290;44.240;2023-07-31T00:26:16;20.03;52.14
75466;HTU21D;64049;46.290;44.240;2023-07-31T00:28:42;20.12;52.09
75466;HTU21D;64049;46.290;44.240;2023-07-31T00:31:08;20.12;52.14
75466;HTU21D;64049;46.290;44.240;2023-07-31T00:33:35;20.10;52.18
75466;HTU21D;64049;46.290;44.240;2023-07-31T00:36:02;20.03;51.98
75466;HTU21D;64049;46.290;44.240;2023-07-31T00:38:28;19.99;52.20
75466;HTU21D;64049;46.290;44.240;2023-07-31T00:40:54;20.02;52.09
75466;HTU21D;64049;46.290;44.240;2023-07-31T00:43:20;20.01;51.96
75466;HTU21D;64049;46.290;44.240;2023-07-31T00:45:46;20.05;52.03
75466;HTU21D;64049;46.290;44.240;2023-07-31T00:48:12;20.13;52.04
75466;HTU21D;64049;46.290;44.240;2023-07-31T00:50:39;20.16;52.05
75466;HTU21D;64049;46.290;44.240;2023-07-31T00:53:04;20.18;52.00
75466;HTU21D;64049;46.290;44.240;2023-07-31T00:55:32;20.20;51.92
75466;HTU21D;64049;46.290;44.240;2023-07-31T00:57:59;20.20;51.86
75466;HTU21D;64049;46.290;44.240;2023-07-31T01:00:25;20.16;51.85
75466;HTU21D;64049;46.290;44.240;2023-07-31T01:02:54;20.16;51.89
75466;HTU21D;64049;46.290;44.240;2023-07-31T01:05:29;20.18;51.86
75466;HTU21D;64049;46.290;44.240;2023-07-31T01:08:05;20.20;51.78
75466;HTU21D;64049;46.290;44.240;2023-07-31T01:10:45;20.16;51.54
75466;HTU21D;64049;46.290;44.240;2023-07-31T01:13:12;20.11;51.50
75466;HTU21D;64049;46.290;44.240;2023-07-31T01:15:38;20.05;51.40
75466;HTU21D;64049;46.290;44.240;2023-07-31T01:18:04;19.99;51.47
75466;HTU21D;64049;46.290;44.240;2023-07-31T01:20:30;19.96;51.46
75466;HTU21D;64049;46.290;44.240;2023-07-31T01:28:42;19.98;51.54
75466;HTU21D;64049;46.290;44.240;2023-07-31T01:31:13;20.01;51.66
75466;HTU21D;64049;46.290;44.240;2023-07-31T01:33:40;19.99;51.89
75466;HTU21D;64049;46.290;44.240;2023-07-31T01:36:07;20.01;51.99
75466;HTU21D;64049;46.290;44.240;2023-07-31T01:38:33;20.03;52.11
75466;HTU21D;64049;46.290;44.240;2023-07-31T01:40:59;20.01;52.11
75466;HTU21D;64049;46.290;44.240;2023-07-31T01:43:25;19.98;52.23
75466;HTU21D;64049;46.290;44.240;2023-07-31T01:45:51;19.95;52.26
75466;HTU21D;64049;46.290;44.240;2023-07-31T01:48:17;19.86;52.56
75466;HTU21D;64049;46.290;44.240;2023-07-31T01:50:43;19.77;52.77
75466;HTU21D;64049;46.290;44.240;2023-07-31T01:53:08;19.69;53.10
75466;HTU21D;64049;46.290;44.240;2023-07-31T01:55:34;19.63;53.33
75466;HTU21D;64049;46.290;44.240;2023-07-31T01:58:00;19.57;53.70
75466;HTU21D;64049;46.290;44.240;2023-07-31T02:00:26;19.53;54.13
75466;HTU21D;64049;46.290;44.240;2023-07-31T02:02:52;19.51;54.43
75466;HTU21D;64049;46.290;44.240;2023-07-31T02:05:19;19.50;54.75
75466;HTU21D;64049;46.290;44.240;2023-07-31T02:07:44;19.50;54.94
75466;HTU21D;64049;46.290;44.240;2023-07-31T02:10:10;19.50;55.06
75466;HTU21D;64049;46.290;44.240;2023-07-31T02:12:36;19.51;55.29
75466;HTU21D;64049;46.290;44.240;2023-07-31T02:15:02;19.51;55.52
75466;HTU21D;64049;46.290;44.240;2023-07-31T02:17:28;19.54;55.61
75466;HTU21D;64049;46.290;44.240;2023-07-31T02:19:55;19.59;55.50
75466;HTU21D;64049;46.290;44.240;2023-07-31T02:22:21;19.60;55.44
75466;HTU21D;64049;46.290;44.240;2023-07-31T02:24:47;19.63;55.22
75466;HTU21D;64049;46.290;44.240;2023-07-31T02:27:13;19.66;54.77
75466;HTU21D;64049;46.290;44.240;2023-07-31T02:29:39;19.70;54.76
75466;HTU21D;64049;46.290;44.240;2023-07-31T02:32:05;19.81;54.51
75466;HTU21D;64049;46.290;44.240;2023-07-31T02:34:31;19.96;54.20
75466;HTU21D;64049;46.290;44.240;2023-07-31T02:36:57;20.04;54.07
75466;HTU21D;64049;46.290;44.240;2023-07-31T02:39:23;20.03;54.71
75466;HTU21D;64049;46.290;44.240;2023-07-31T02:41:49;20.05;55.04
75466;HTU21D;64049;46.290;44.240;2023-07-31T02:44:16;20.09;55.28
75466;HTU21D;64049;46.290;44.240;2023-07-31T02:46:42;20.11;55.61
75466;HTU21D;64049;46.290;44.240;2023-07-31T02:49:08;20.12;55.68
75466;HTU21D;64049;46.290;44.240;2023-07-31T02:51:33;20.13;55.83
75466;HTU21D;64049;46.290;44.240;2023-07-31T02:53:59;20.17;56.03
75466;HTU21D;64049;46.290;44.240;2023-07-31T02:56:25;20.19;56.04
75466;HTU21D;64049;46.290;44.240;2023-07-31T02:58:52;20.26;56.19
75466;HTU21D;64049;46.290;44.240;2023-07-31T03:01:17;20.36;56.08
75466;HTU21D;64049;46.290;44.240;2023-07-31T03:03:43;20.47;55.68
75466;HTU21D;64049;46.290;44.240;2023-07-31T03:06:11;20.57;55.58
75466;HTU21D;64049;46.290;44.240;2023-07-31T03:08:37;20.66;55.45
75466;HTU21D;64049;46.290;44.240;2023-07-31T03:11:02;20.76;55.04
75466;HTU21D;64049;46.290;44.240;2023-07-31T03:13:28;20.88;54.75
75466;HTU21D;64049;46.290;44.240;2023-07-31T03:15:54;21.02;54.43
75466;HTU21D;64049;46.290;44.240;2023-07-31T03:18:20;21.18;54.23
75466;HTU21D;64049;46.290;44.240;2023-07-31T03:20:46;21.30;53.86
75466;HTU21D;64049;46.290;44.240;2023-07-31T03:23:12;21.45;53.55
75466;HTU21D;64049;46.290;44.240;2023-07-31T03:25:39;21.61;53.21
75466;HTU21D;64049;46.290;44.240;2023-07-31T03:28:05;21.76;52.73
75466;HTU21D;64049;46.290;44.240;2023-07-31T03:30:31;21.90;52.65
75466;HTU21D;64049;46.290;44.240;2023-07-31T03:32:58;22.06;52.19
75466;HTU21D;64049;46.290;44.240;2023-07-31T03:35:23;22.16;51.79
75466;HTU21D;64049;46.290;44.240;2023-07-31T03:37:49;22.28;51.03
75466;HTU21D;64049;46.290;44.240;2023-07-31T03:40:15;22.41;50.60
75466;HTU21D;64049;46.290;44.240;2023-07-31T03:42:42;22.51;50.37
75466;HTU21D;64049;46.290;44.240;2023-07-31T03:45:08;22.62;49.76
75466;HTU21D;64049;46.290;44.240;2023-07-31T03:47:34;22.76;49.53
75466;HTU21D;64049;46.290;44.240;2023-07-31T03:50:00;22.88;49.08
75466;HTU21D;64049;46.290;44.240;2023-07-31T03:52:26;23.05;49.24
75466;HTU21D;64049;46.290;44.240;2023-07-31T03:54:52;23.17;49.45
75466;HTU21D;64049;46.290;44.240;2023-07-31T03:57:17;23.32;49.51
75466;HTU21D;64049;46.290;44.240;2023-07-31T03:59:43;23.46;49.56
75466;HTU21D;64049;46.290;44.240;2023-07-31T04:02:09;23.62;49.18
75466;HTU21D;64049;46.290;44.240;2023-07-31T04:04:35;23.74;48.96
75466;HTU21D;64049;46.290;44.240;2023-07-31T04:07:01;23.87;48.52
75466;HTU21D;64049;46.290;44.240;2023-07-31T04:09:27;24.01;48.31
75466;HTU21D;64049;46.290;44.240;2023-07-31T04:11:52;24.13;48.35
75466;HTU21D;64049;46.290;44.240;2023-07-31T04:14:18;24.26;47.96
75466;HTU21D;64049;46.290;44.240;2023-07-31T04:16:44;24.41;47.28
75466;HTU21D;64049;46.290;44.240;2023-07-31T04:19:10;24.59;47.00
75466;HTU21D;64049;46.290;44.240;2023-07-31T04:21:36;24.73;47.05
75466;HTU21D;64049;46.290;44.240;2023-07-31T04:24:02;24.87;46.91
75466;HTU21D;64049;46.290;44.240;2023-07-31T04:26:28;25.02;46.68
75466;HTU21D;64049;46.290;44.240;2023-07-31T04:28:56;25.17;46.07
75466;HTU21D;64049;46.290;44.240;2023-07-31T04:31:22;25.36;45.52
75466;HTU21D;64049;46.290;44.240;2023-07-31T04:33:51;25.51;45.07
75466;HTU21D;64049;46.290;44.240;2023-07-31T04:36:17;25.69;44.77
75466;HTU21D;64049;46.290;44.240;2023-07-31T04:38:42;25.84;44.75
75466;HTU21D;64049;46.290;44.240;2023-07-31T04:41:08;25.96;44.77
75466;HTU21D;64049;46.290;44.240;2023-07-31T04:43:35;26.08;44.37
75466;HTU21D;64049;46.290;44.240;2023-07-31T04:46:04;26.23;44.33
75466;HTU21D;64049;46.290;44.240;2023-07-31T04:48:30;26.36;44.19
75466;HTU21D;64049;46.290;44.240;2023-07-31T04:50:56;26.48;43.88
75466;HTU21D;64049;46.290;44.240;2023-07-31T04:53:22;26.58;43.71
75466;HTU21D;64049;46.290;44.240;2023-07-31T04:55:48;26.71;43.20
75466;HTU21D;64049;46.290;44.240;2023-07-31T04:58:14;26.86;42.48
75466;HTU21D;64049;46.290;44.240;2023-07-31T05:00:40;26.99;42.33
75466;HTU21D;64049;46.290;44.240;2023-07-31T05:03:06;27.09;41.45
75466;HTU21D;64049;46.290;44.240;2023-07-31T05:05:32;27.20;41.62
75466;HTU21D;64049;46.290;44.240;2023-07-31T05:07:58;27.32;41.75
75466;HTU21D;64049;46.290;44.240;2023-07-31T05:10:24;27.45;41.39
75466;HTU21D;64049;46.290;44.240;2023-07-31T05:12:51;27.56;41.04
75466;HTU21D;64049;46.290;44.240;2023-07-31T05:15:17;27.68;40.97
75466;HTU21D;64049;46.290;44.240;2023-07-31T05:17:42;27.84;40.91
75466;HTU21D;64049;46.290;44.240;2023-07-31T05:20:09;27.94;40.00
75466;HTU21D;64049;46.290;44.240;2023-07-31T05:22:35;28.03;39.88
75466;HTU21D;64049;46.290;44.240;2023-07-31T05:25:01;28.18;38.88
75466;HTU21D;64049;46.290;44.240;2023-07-31T05:27:26;28.28;38.72
75466;HTU21D;64049;46.290;44.240;2023-07-31T05:29:52;28.35;38.29
75466;HTU21D;64049;46.290;44.240;2023-07-31T05:32:19;28.46;38.40
75466;HTU21D;64049;46.290;44.240;2023-07-31T05:34:45;28.60;38.97
75466;HTU21D;64049;46.290;44.240;2023-07-31T05:37:11;28.70;37.76
75466;HTU21D;64049;46.290;44.240;2023-07-31T05:39:37;28.74;36.72
75466;HTU21D;64049;46.290;44.240;2023-07-31T05:42:04;28.79;36.71
75466;HTU21D;64049;46.290;44.240;2023-07-31T05:44:30;28.93;36.31
75466;HTU21D;64049;46.290;44.240;2023-07-31T05:46:56;29.06;36.29
75466;HTU21D;64049;46.290;44.240;2023-07-31T05:49:22;29.15;35.64
75466;HTU21D;64049;46.290;44.240;2023-07-31T05:51:48;29.14;34.63
75466;HTU21D;64049;46.290;44.240;2023-07-31T05:54:14;29.17;34.18
75466;HTU21D;64049;46.290;44.240;2023-07-31T05:56:40;29.19;33.64
75466;HTU21D;64049;46.290;44.240;2023-07-31T05:59:05;29.24;34.21
75466;HTU21D;64049;46.290;44.240;2023-07-31T06:01:31;29.45;34.23
75466;HTU21D;64049;46.290;44.240;2023-07-31T06:03:57;29.66;34.41
75466;HTU21D;64049;46.290;44.240;2023-07-31T06:06:23;29.83;34.75
75466;HTU21D;64049;46.290;44.240;2023-07-31T06:08:49;29.98;34.34
75466;HTU21D;64049;46.290;44.240;2023-07-31T06:11:15;30.22;34.31
75466;HTU21D;64049;46.290;44.240;2023-07-31T06:13:41;30.44;33.91
75466;HTU21D;64049;46.290;44.240;2023-07-31T06:16:07;30.62;33.01
75466;HTU21D;64049;46.290;44.240;2023-07-31T06:18:33;30.79;33.02
75466;HTU21D;64049;46.290;44.240;2023-07-31T06:20:59;30.96;32.54
75466;HTU21D;64049;46.290;44.240;2023-07-31T06:23:26;31.16;31.98
75466;HTU21D;64049;46.290;44.240;2023-07-31T06:25:52;31.39;32.61
75466;HTU21D;64049;46.290;44.240;2023-07-31T06:28:18;31.50;31.72
75466;HTU21D;64049;46.290;44.240;2023-07-31T06:30:43;31.61;31.26
75466;HTU21D;64049;46.290;44.240;2023-07-31T06:33:09;31.84;30.74
75466;HTU21D;64049;46.290;44.240;2023-07-31T06:35:35;32.15;29.98
75466;HTU21D;64049;46.290;44.240;2023-07-31T06:38:01;32.50;29.91
75466;HTU21D;64049;46.290;44.240;2023-07-31T06:40:28;32.89;29.38
75466;HTU21D;64049;46.290;44.240;2023-07-31T06:42:54;33.16;28.28
75466;HTU21D;64049;46.290;44.240;2023-07-31T06:45:20;33.31;27.80
75466;HTU21D;64049;46.290;44.240;2023-07-31T06:47:47;33.51;27.74
75466;HTU21D;64049;46.290;44.240;2023-07-31T06:50:13;33.80;26.97
75466;HTU21D;64049;46.290;44.240;2023-07-31T06:52:39;34.01;25.78
75466;HTU21D;64049;46.290;44.240;2023-07-31T06:55:21;33.95;26.16
75466;HTU21D;64049;46.290;44.240;2023-07-31T06:57:50;34.16;26.04
75466;HTU21D;64049;46.290;44.240;2023-07-31T07:00:16;34.23;25.01
75466;HTU21D;64049;46.290;44.240;2023-07-31T07:02:42;34.05;23.83
75466;HTU21D;64049;46.290;44.240;2023-07-31T07:05:09;34.07;24.62
75466;HTU21D;64049;46.290;44.240;2023-07-31T07:07:35;34.24;23.37
75466;HTU21D;64049;46.290;44.240;2023-07-31T07:10:01;33.99;22.60
75466;HTU21D;64049;46.290;44.240;2023-07-31T07:12:30;33.91;23.69
75466;HTU21D;64049;46.290;44.240;2023-07-31T07:14:57;34.23;23.26
75466;HTU21D;64049;46.290;44.240;2023-07-31T07:17:27;34.38;23.37
75466;HTU21D;64049;46.290;44.240;2023-07-31T07:19:53;34.80;22.76
75466;HTU21D;64049;46.290;44.240;2023-07-31T07:22:19;35.12;21.71
75466;HTU21D;64049;46.290;44.240;2023-07-31T07:24:45;34.93;21.40
75466;HTU21D;64049;46.290;44.240;2023-07-31T07:27:11;34.36;22.01
75466;HTU21D;64049;46.290;44.240;2023-07-31T07:29:37;33.89;23.64
75466;HTU21D;64049;46.290;44.240;2023-07-31T07:32:04;33.42;23.66
75466;HTU21D;64049;46.290;44.240;2023-07-31T07:34:30;33.01;23.30
75466;HTU21D;64049;46.290;44.240;2023-07-31T07:36:56;32.55;24.18
75466;HTU21D;64049;46.290;44.240;2023-07-31T07:39:21;32.33;24.92
75466;HTU21D;64049;46.290;44.240;2023-07-31T07:41:47;32.29;25.37
75466;HTU21D;64049;46.290;44.240;2023-07-31T07:44:14;32.71;25.43
75466;HTU21D;64049;46.290;44.240;2023-07-31T07:46:40;33.17;24.17
75466;HTU21D;64049;46.290;44.240;2023-07-31T07:49:06;33.31;24.62
75466;HTU21D;64049;46.290;44.240;2023-07-31T07:51:32;33.36;24.53
75466;HTU21D;64049;46.290;44.240;2023-07-31T07:53:58;33.73;24.83
75466;HTU21D;64049;46.290;44.240;2023-07-31T07:56:28;34.09;23.95
75466;HTU21D;64049;46.290;44.240;2023-07-31T07:58:54;34.38;23.91
75466;HTU21D;64049;46.290;44.240;2023-07-31T08:01:20;34.61;24.19
75466;HTU21D;64049;46.290;44.240;2023-07-31T08:03:49;34.63;24.13
75466;HTU21D;64049;46.290;44.240;2023-07-31T08:06:15;34.82;24.03
75466;HTU21D;64049;46.290;44.240;2023-07-31T08:08:42;34.93;23.81
75466;HTU21D;64049;46.290;44.240;2023-07-31T08:11:08;35.10;23.40
75466;HTU21D;64049;46.290;44.240;2023-07-31T08:13:34;35.28;23.55
75466;HTU21D;64049;46.290;44.240;2023-07-31T08:16:03;35.33;22.82
75466;HTU21D;64049;46.290;44.240;2023-07-31T08:18:30;35.42;22.72
75466;HTU21D;64049;46.290;44.240;2023-07-31T08:20:56;35.54;22.17
75466;HTU21D;64049;46.290;44.240;2023-07-31T08:23:22;35.49;22.24
75466;HTU21D;64049;46.290;44.240;2023-07-31T08:25:48;35.53;21.92
75466;HTU21D;64049;46.290;44.240;2023-07-31T08:28:16;35.51;21.95
75466;HTU21D;64049;46.290;44.240;2023-07-31T08:30:42;35.44;20.54
75466;HTU21D;64049;46.290;44.240;2023-07-31T08:33:08;34.97;20.42
75466;HTU21D;64049;46.290;44.240;2023-07-31T08:35:34;34.81;22.24
75466;HTU21D;64049;46.290;44.240;2023-07-31T08:38:00;34.84;20.43
75466;HTU21D;64049;46.290;44.240;2023-07-31T08:40:26;34.46;21.10
75466;HTU21D;64049;46.290;44.240;2023-07-31T08:42:55;34.52;21.21
75466;HTU21D;64049;46.290;44.240;2023-07-31T08:45:22;34.59;21.27
75466;HTU21D;64049;46.290;44.240;2023-07-31T08:47:49;34.82;21.72
75466;HTU21D;64049;46.290;44.240;2023-07-31T08:50:17;35.14;21.69
75466;HTU21D;64049;46.290;44.240;2023-07-31T08:52:43;35.12;20.28
75466;HTU21D;64049;46.290;44.240;2023-07-31T08:55:10;34.79;20.88
75466;HTU21D;64049;46.290;44.240;2023-07-31T08:57:37;34.76;20.67
75466;HTU21D;64049;46.290;44.240;2023-07-31T09:00:05;35.08;20.90
75466;HTU21D;64049;46.290;44.240;2023-07-31T09:05:15;35.36;20.67
75466;HTU21D;64049;46.290;44.240;2023-07-31T09:07:43;35.40;20.87
75466;HTU21D;64049;46.290;44.240;2023-07-31T09:10:12;35.40;19.54
75466;HTU21D;64049;46.290;44.240;2023-07-31T09:12:39;35.08;19.35
75466;HTU21D;64049;46.290;44.240;2023-07-31T09:15:05;34.83;19.18
75466;HTU21D;64049;46.290;44.240;2023-07-31T09:17:33;34.81;19.80
75466;HTU21D;64049;46.290;44.240;2023-07-31T09:20:16;34.65;19.83
75466;HTU21D;64049;46.290;44.240;2023-07-31T09:22:43;34.71;20.51
75466;HTU21D;64049;46.290;44.240;2023-07-31T09:30:15;34.35;20.00
75466;HTU21D;64049;46.290;44.240;2023-07-31T09:32:40;34.04;21.87
75466;HTU21D;64049;46.290;44.240;2023-07-31T09:35:30;34.53;21.83
75466;HTU21D;64049;46.290;44.240;2023-07-31T09:38:04;35.00;21.20
75466;HTU21D;64049;46.290;44.240;2023-07-31T09:40:32;35.45;21.83
75466;HTU21D;64049;46.290;44.240;2023-07-31T09:43:00;35.68;21.43
75466;HTU21D;64049;46.290;44.240;2023-07-31T09:45:27;36.00;20.77
75466;HTU21D;64049;46.290;44.240;2023-07-31T09:47:54;35.94;21.04
75466;HTU21D;64049;46.290;44.240;2023-07-31T09:50:20;35.97;21.76
75466;HTU21D;64049;46.290;44.240;2023-07-31T09:52:46;36.15;20.79
75466;HTU21D;64049;46.290;44.240;2023-07-31T09:55:12;36.38;20.51
75466;HTU21D;64049;46.290;44.240;2023-07-31T09:57:40;36.41;20.88
75466;HTU21D;64049;46.290;44.240;2023-07-31T10:00:14;36.40;21.45
75466;HTU21D;64049;46.290;44.240;2023-07-31T10:02:46;36.58;20.08
75466;HTU21D;64049;46.290;44.240;2023-07-31T10:05:14;36.71;19.90
75466;HTU21D;64049;46.290;44.240;2023-07-31T10:07:55;36.72;18.36
75466;HTU21D;64049;46.290;44.240;2023-07-31T10:10:23;36.14;18.94
75466;HTU21D;64049;46.290;44.240;2023-07-31T10:12:52;35.54;18.73
75466;HTU21D;64049;46.290;44.240;2023-07-31T10:15:18;35.23;20.35
75466;HTU21D;64049;46.290;44.240;2023-07-31T10:17:47;35.31;21.43
75466;HTU21D;64049;46.290;44.240;2023-07-31T10:20:15;35.38;21.18
75466;HTU21D;64049;46.290;44.240;2023-07-31T10:22:42;35.45;20.57
75466;HTU21D;64049;46.290;44.240;2023-07-31T10:25:09;35.84;20.37
75466;HTU21D;64049;46.290;44.240;2023-07-31T10:27:35;36.12;20.25
75466;HTU21D;64049;46.290;44.240;2023-07-31T10:30:03;36.28;19.31
75466;HTU21D;64049;46.290;44.240;2023-07-31T10:32:30;36.11;19.97
75466;HTU21D;64049;46.290;44.240;2023-07-31T10:34:57;36.08;18.54
75466;HTU21D;64049;46.290;44.240;2023-07-31T10:37:36;35.99;19.05
75466;HTU21D;64049;46.290;44.240;2023-07-31T10:40:07;36.28;18.93
75466;HTU21D;64049;46.290;44.240;2023-07-31T10:45:13;36.28;19.22
75466;HTU21D;64049;46.290;44.240;2023-07-31T10:47:43;36.62;19.69
75466;HTU21D;64049;46.290;44.240;2023-07-31T10:50:20;37.19;19.26
75466;HTU21D;64049;46.290;44.240;2023-07-31T10:52:49;37.47;18.86
75466;HTU21D;64049;46.290;44.240;2023-07-31T10:55:25;37.32;19.01
75466;HTU21D;64049;46.290;44.240;2023-07-31T10:57:55;37.31;18.15
75466;HTU21D;64049;46.290;44.240;2023-07-31T11:00:28;37.20;18.51
75466;HTU21D;64049;46.290;44.240;2023-07-31T11:03:05;37.29;17.50
75466;HTU21D;64049;46.290;44.240;2023-07-31T11:08:11;37.41;18.51
75466;HTU21D;64049;46.290;44.240;2023-07-31T11:10:37;37.61;18.38
75466;HTU21D;64049;46.290;44.240;2023-07-31T11:13:06;37.77;17.56
75466;HTU21D;64049;46.290;44.240;2023-07-31T11:15:32;37.67;17.14
75466;HTU21D;64049;46.290;44.240;2023-07-31T11:18:00;37.27;17.08
75466;HTU21D;64049;46.290;44.240;2023-07-31T11:20:38;37.14;16.86
75466;HTU21D;64049;46.290;44.240;2023-07-31T11:23:09;37.51;17.84
75466;HTU21D;64049;46.290;44.240;2023-07-31T11:25:36;38.05;18.38
75466;HTU21D;64049;46.290;44.240;2023-07-31T11:28:11;38.66;18.30
75466;HTU21D;64049;46.290;44.240;2023-07-31T11:30:38;38.84;16.90
75466;HTU21D;64049;46.290;44.240;2023-07-31T11:33:05;38.74;15.95
75466;HTU21D;64049;46.290;44.240;2023-07-31T11:35:42;38.70;17.41
75466;HTU21D;64049;46.290;44.240;2023-07-31T11:38:12;38.93;15.75
75466;HTU21D;64049;46.290;44.240;2023-07-31T11:40:42;38.34;15.74
75466;HTU21D;64049;46.290;44.240;2023-07-31T11:43:07;37.90;17.52
75466;HTU21D;64049;46.290;44.240;2023-07-31T11:45:34;37.69;18.54
75466;HTU21D;64049;46.290;44.240;2023-07-31T11:48:01;37.49;18.11
75466;HTU21D;64049;46.290;44.240;2023-07-31T11:50:27;37.12;19.02
75466;HTU21D;64049;46.290;44.240;2023-07-31T11:53:07;36.77;18.91
75466;HTU21D;64049;46.290;44.240;2023-07-31T11:55:33;36.41;18.90
75466;HTU21D;64049;46.290;44.240;2023-07-31T11:58:00;36.07;19.86
75466;HTU21D;64049;46.290;44.240;2023-07-31T12:00:27;35.82;20.66
75466;HTU21D;64049;46.290;44.240;2023-07-31T12:02:53;35.57;20.63
75466;HTU21D;64049;46.290;44.240;2023-07-31T12:05:19;35.28;20.03
75466;HTU21D;64049;46.290;44.240;2023-07-31T12:07:53;35.06;21.07
75466;HTU21D;64049;46.290;44.240;2023-07-31T12:10:27;34.97;20.89
75466;HTU21D;64049;46.290;44.240;2023-07-31T12:13:02;34.83;21.42
75466;HTU21D;64049;46.290;44.240;2023-07-31T12:15:39;34.69;21.85
75466;HTU21D;64049;46.290;44.240;2023-07-31T12:18:16;34.54;21.60
75466;HTU21D;64049;46.290;44.240;2023-07-31T12:20:46;34.38;22.14
75466;HTU21D;64049;46.290;44.240;2023-07-31T12:23:21;34.25;21.29
75466;HTU21D;64049;46.290;44.240;2023-07-31T12:26:15;34.16;20.54
75466;HTU21D;64049;46.290;44.240;2023-07-31T12:31:09;37.00;16.78
75466;HTU21D;64049;46.290;44.240;2023-07-31T12:33:36;36.49;16.92
75466;HTU21D;64049;46.290;44.240;2023-07-31T12:36:08;35.95;17.54
75466;HTU21D;64049;46.290;44.240;2023-07-31T12:38:34;35.98;18.19
75466;HTU21D;64049;46.290;44.240;2023-07-31T12:41:00;35.42;18.60
75466;HTU21D;64049;46.290;44.240;2023-07-31T12:43:26;34.85;19.20
75466;HTU21D;64049;46.290;44.240;2023-07-31T12:45:54;34.27;19.36
75466;HTU21D;64049;46.290;44.240;2023-07-31T12:48:21;33.89;20.08
75466;HTU21D;64049;46.290;44.240;2023-07-31T12:50:47;33.62;20.15
75466;HTU21D;64049;46.290;44.240;2023-07-31T12:53:14;33.41;20.86
75466;HTU21D;64049;46.290;44.240;2023-07-31T12:55:40;33.36;20.95
75466;HTU21D;64049;46.290;44.240;2023-07-31T12:58:06;33.34;20.82
75466;HTU21D;64049;46.290;44.240;2023-07-31T13:00:32;33.29;20.94
75466;HTU21D;64049;46.290;44.240;2023-07-31T13:03:00;33.15;20.97
75466;HTU21D;64049;46.290;44.240;2023-07-31T13:05:27;33.12;21.24
75466;HTU21D;64049;46.290;44.240;2023-07-31T13:07:53;33.16;22.05
75466;HTU21D;64049;46.290;44.240;2023-07-31T13:10:19;33.21;21.77
75466;HTU21D;64049;46.290;44.240;2023-07-31T13:12:45;33.22;21.36
75466;HTU21D;64049;46.290;44.240;2023-07-31T13:15:12;33.17;21.23
75466;HTU21D;64049;46.290;44.240;2023-07-31T13:17:38;33.11;21.33
75466;HTU21D;64049;46.290;44.240;2023-07-31T13:20:04;33.00;21.21
75466;HTU21D;64049;46.290;44.240;2023-07-31T13:22:30;32.92;21.47
75466;HTU21D;64049;46.290;44.240;2023-07-31T13:24:56;32.97;21.53
75466;HTU21D;64049;46.290;44.240;2023-07-31T13:27:22;33.05;23.47
75466;HTU21D;64049;46.290;44.240;2023-07-31T13:29:49;33.08;23.19
75466;HTU21D;64049;46.290;44.240;2023-07-31T13:32:16;33.06;23.35
75466;HTU21D;64049;46.290;44.240;2023-07-31T13:34:43;33.09;23.42
75466;HTU21D;64049;46.290;44.240;2023-07-31T13:37:09;33.12;23.69
75466;HTU21D;64049;46.290;44.240;2023-07-31T13:39:34;33.14;23.39
75466;HTU21D;64049;46.290;44.240;2023-07-31T13:42:03;33.11;23.52
75466;HTU21D;64049;46.290;44.240;2023-07-31T13:44:29;33.13;23.59
75466;HTU21D;64049;46.290;44.240;2023-07-31T13:46:54;33.07;23.68
75466;HTU21D;64049;46.290;44.240;2023-07-31T13:49:20;33.02;23.78
75466;HTU21D;64049;46.290;44.240;2023-07-31T13:51:46;32.94;24.59
75466;HTU21D;64049;46.290;44.240;2023-07-31T13:54:12;32.86;23.97
75466;HTU21D;64049;46.290;44.240;2023-07-31T13:56:38;32.87;25.49
75466;HTU21D;64049;46.290;44.240;2023-07-31T13:59:04;32.89;24.35
75466;HTU21D;64049;46.290;44.240;2023-07-31T14:01:30;32.91;24.14
75466;HTU21D;64049;46.290;44.240;2023-07-31T14:03:56;32.96;23.90
75466;HTU21D;64049;46.290;44.240;2023-07-31T14:06:22;32.99;24.56
75466;HTU21D;64049;46.290;44.240;2023-07-31T14:08:48;33.03;24.25
75466;HTU21D;64049;46.290;44.240;2023-07-31T14:11:14;32.99;24.53
75466;HTU21D;64049;46.290;44.240;2023-07-31T14:13:40;32.94;24.30
75466;HTU21D;64049;46.290;44.240;2023-07-31T14:16:06;32.92;24.98
75466;HTU21D;64049;46.290;44.240;2023-07-31T14:18:32;32.89;25.46
75466;HTU21D;64049;46.290;44.240;2023-07-31T14:20:58;32.85;25.55
75466;HTU21D;64049;46.290;44.240;2023-07-31T14:23:23;32.77;25.09
75466;HTU21D;64049;46.290;44.240;2023-07-31T14:25:49;32.67;25.12
75466;HTU21D;64049;46.290;44.240;2023-07-31T14:28:15;32.64;25.52
75466;HTU21D;64049;46.290;44.240;2023-07-31T14:30:41;32.60;26.04
75466;HTU21D;64049;46.290;44.240;2023-07-31T14:33:07;32.54;26.31
75466;HTU21D;64049;46.290;44.240;2023-07-31T14:35:34;32.47;25.49
75466;HTU21D;64049;46.290;44.240;2023-07-31T14:38:00;32.42;26.09
75466;HTU21D;64049;46.290;44.240;2023-07-31T14:40:26;32.37;25.72
75466;HTU21D;64049;46.290;44.240;2023-07-31T14:42:52;32.28;25.62
75466;HTU21D;64049;46.290;44.240;2023-07-31T14:45:18;32.24;25.38
75466;HTU21D;64049;46.290;44.240;2023-07-31T14:47:43;32.19;25.30
75466;HTU21D;64049;46.290;44.240;2023-07-31T14:50:09;32.13;25.37
75466;HTU21D;64049;46.290;44.240;2023-07-31T14:52:35;32.07;25.55
75466;HTU21D;64049;46.290;44.240;2023-07-31T14:55:01;32.03;25.88
75466;HTU21D;64049;46.290;44.240;2023-07-31T14:57:27;32.00;25.95
75466;HTU21D;64049;46.290;44.240;2023-07-31T14:59:53;31.94;26.10
75466;HTU21D;64049;46.290;44.240;2023-07-31T15:02:19;31.86;26.17
75466;HTU21D;64049;46.290;44.240;2023-07-31T15:04:45;31.79;26.23
75466;HTU21D;64049;46.290;44.240;2023-07-31T15:07:11;31.69;26.79
75466;HTU21D;64049;46.290;44.240;2023-07-31T15:09:39;31.59;26.66
75466;HTU21D;64049;46.290;44.240;2023-07-31T15:12:05;31.53;27.33
75466;HTU21D;64049;46.290;44.240;2023-07-31T15:14:31;31.44;26.89
75466;HTU21D;64049;46.290;44.240;2023-07-31T15:16:58;31.34;26.97
75466;HTU21D;64049;46.290;44.240;2023-07-31T15:19:23;31.23;26.84
75466;HTU21D;64049;46.290;44.240;2023-07-31T15:21:49;31.13;26.82
75466;HTU21D;64049;46.290;44.240;2023-07-31T15:24:15;31.00;27.09